Lemoore Naval Air Station (Reeves Field) Airport Lemoore US
ICAO: KNLC
IATA: NLC
Category: Medium
Scheduled Services: No

Elevation: 232 ft
TransAlt. 18000 ft.

Airport Communications:
APP:118.15
ATIS:26.76
CLNC DEL:124.1
DEP:118.15
GND:121.65
BASE OPS:29.93
PMSV METRO:31.7
TWR:128.3

KNLC Zoom In..

If Map Doesn't Load, Click Here

Runways:

(A) RW 14L length 13500 ft width 200 ft
---- / hdg 142

(B) RW 14R length 13497 ft width 200 ft
---- / hdg 142

(C) RW 32L length 13497 ft width 200 ft
---- / hdg 322

(D) RW 32R length 13500 ft width 200 ft
---- / hdg 322

Location; KNLC
Day. 21 / Time. 13.22 Zulu
* Altimeter: 29.92
* Temperature: 12° c. 53.6°f.
* Wind from: 000° Speed 00 kn.
Dewpoint: 01° c.
Visibility: 9 Statute Miles.
Clouds: Clear (automated report).

KNLC 211322Z AUTO 00000KT 9SM CLR 12/01 A2992 RMK AO2 T01170006


Wind - Calm.

 
 
jpsmedia.com for Web Design worldairports.se 2018   terms of use